Terminal Aerodrome Forecast
Issued by NWS Corpus Christi, TX

Home | Current Version | Previous Version | Text Only | Print | Product List | Glossary On
Versions: 1 2 3 4 5 6 7 8 9 10 11 12 13 14 15 16
000
FTUS44 KCRP 301131 CCA
TAFVCT
TAF COR
KVCT 301131Z 3012/3112 11004KT 5SM BR VCSH SCT015 BKN150
      TEMPO 3012/3014 3SM BR BKN015
     FM301400 14008KT P6SM SCT025 BKN250
     FM301800 14012KT P6SM SCT040 BKN250
     FM310100 14006KT P6SM FEW015 BKN100
     FM310700 10004KT 5SM BR FEW010 BKN250=

USA.gov is the U.S. government's official web portal to all federal, state and local government web resources and services.